Strona główna
METAR-TAF:

METAR-TAF

Lotnisko :

Port lotniczy Samedan

Sankt Moritz, Szwajcaria

Szerokość geograficzna: 46-32-03N, Długość geograficzna: 9-53-03E, wysokość: 1707 m

Aktualna obserwacja pogody

Raport powstał 34 minut temu, godzina 11:20 UTC
Wiatr 14 kt od południowo-południowy zachód
Temperatura 3°C
Wilgotność 81%
Ciśnienie 1017 hPa
Widzialność 10 km lub więcej
Mało chmury na wysokości 3300 ft
Rozproszone chmury na wysokości 5000 ft

METAR: LSZS 161120Z 21014KT 9999 FEW033 SCT050 03/M00 Q1017 RMK K TL170

czas: 12:54 (11:54 UTC)

Prognoza

Raport powstał 29 minut temu, godzina 11:25 UTC
Prognoza ważna od 16 godzina 12 UTC do 16 godzina 21 UTC
Wiatr 11 kt od południowy zachód
Widzialność 10 km lub więcej
Mało chmury na wysokości 3300 ft
Rozproszone chmury na wysokości 5000 ft
Prawdopodobieństwo 40% :
Przejściowo
od 16 godzina 12 UTC do 16 godzina 18 UTC
Wiatr 15 kt od południowo-południowy zachód w porywach dochodzący do 27 kt

TAF: LSZS 161125Z 1612/1621 22011KT 9999 FEW033 SCT050 TX04/1613Z PROB40 TEMPO 1612/1618 21015G27KT

Obserwacja i prognoza pogody dla ponad 4000 lotnisk (raport METAR i TAF).

Dostępne stacje oznaczono żółtymi i czerwonymi punktami na mapie.

Najedź kursorem aby zobaczyć nazwę stacji.

Kliknij aby zobaczyć obserwacje i prognozy pogody.

Aby zmienić mapę: kliknij na zielony przycisk z czarnym krzyżykiem, aby powiększyć; na zielony przycisk z myślnikiem, aby pomniejszyć; na zielone strzałki, aby przejść do map sąsiednich.


METAR-TAF: